sensor_id;sensor_type;location;lat;lon;timestamp;pressure;altitude;pressure_sealevel;temperature;humidity
75913;BME280;64592;52.168;21.040;2024-01-30T00:01:50;102129.63;;;1.02;100.00
75913;BME280;64592;52.168;21.040;2024-01-30T00:06:53;102119.03;;;1.02;100.00
75913;BME280;64592;52.168;21.040;2024-01-30T00:11:55;102116.38;;;1.02;100.00
75913;BME280;64592;52.168;21.040;2024-01-30T00:16:57;102110.19;;;0.97;100.00
75913;BME280;64592;52.168;21.040;2024-01-30T00:22:00;102109.34;;;0.93;100.00
75913;BME280;64592;52.168;21.040;2024-01-30T00:27:02;102098.72;;;0.93;100.00
75913;BME280;64592;52.168;21.040;2024-01-30T00:32:04;102096.06;;;0.92;100.00
75913;BME280;64592;52.168;21.040;2024-01-30T00:37:07;102093.47;;;0.87;100.00
75913;BME280;64592;52.168;21.040;2024-01-30T00:42:09;102098.72;;;0.93;100.00
75913;BME280;64592;52.168;21.040;2024-01-30T00:47:10;102086.34;;;0.94;100.00
75913;BME280;64592;52.168;21.040;2024-01-30T00:52:13;102083.69;;;0.94;100.00
75913;BME280;64592;52.168;21.040;2024-01-30T00:57:15;102090.75;;;0.92;100.00
75913;BME280;64592;52.168;21.040;2024-01-30T01:02:16;102086.38;;;0.88;100.00
75913;BME280;64592;52.168;21.040;2024-01-30T01:07:20;102083.72;;;0.88;100.00
75913;BME280;64592;52.168;21.040;2024-01-30T01:12:21;102080.22;;;0.84;100.00
75913;BME280;64592;52.168;21.040;2024-01-30T01:17:23;102084.69;;;0.81;100.00
75913;BME280;64592;52.168;21.040;2024-01-30T01:22:26;102075.78;;;0.85;100.00
75913;BME280;64592;52.168;21.040;2024-01-30T01:27:28;102081.09;;;0.85;100.00
75913;BME280;64592;52.168;21.040;2024-01-30T01:32:29;102092.59;;;0.87;100.00
75913;BME280;64592;52.168;21.040;2024-01-30T01:37:32;102087.22;;;0.93;100.00
75913;BME280;64592;52.168;21.040;2024-01-30T01:42:34;102080.13;;;0.95;100.00
75913;BME280;64592;52.168;21.040;2024-01-30T01:47:36;102073.97;;;0.90;100.00
75913;BME280;64592;52.168;21.040;2024-01-30T01:52:40;102076.63;;;0.90;100.00
75913;BME280;64592;52.168;21.040;2024-01-30T01:57:42;102078.44;;;0.83;100.00
75913;BME280;64592;52.168;21.040;2024-01-30T02:02:45;102071.41;;;0.77;100.00
75913;BME280;64592;52.168;21.040;2024-01-30T02:07:48;102064.41;;;0.69;100.00
75913;BME280;64592;52.168;21.040;2024-01-30T02:12:51;102050.41;;;0.50;100.00
75913;BME280;64592;52.168;21.040;2024-01-30T02:17:53;102049.53;;;0.45;100.00
75913;BME280;64592;52.168;21.040;2024-01-30T02:22:58;102048.66;;;0.45;100.00
75913;BME280;64592;52.168;21.040;2024-01-30T02:28:02;102054.81;;;0.48;100.00
75913;BME280;64592;52.168;21.040;2024-01-30T02:33:04;102050.41;;;0.50;100.00
75913;BME280;64592;52.168;21.040;2024-01-30T02:38:07;102054.00;;;0.43;100.00
75913;BME280;64592;52.168;21.040;2024-01-30T02:43:09;102055.75;;;0.41;100.00
75913;BME280;64592;52.168;21.040;2024-01-30T02:48:10;102054.03;;;0.35;100.00
75913;BME280;64592;52.168;21.040;2024-01-30T02:53:13;102059.34;;;0.32;100.00
75913;BME280;64592;52.168;21.040;2024-01-30T02:58:15;102048.72;;;0.37;100.00
75913;BME280;64592;52.168;21.040;2024-01-30T03:03:17;102044.31;;;0.30;100.00
75913;BME280;64592;52.168;21.040;2024-01-30T03:08:20;102042.59;;;0.29;100.00
75913;BME280;64592;52.168;21.040;2024-01-30T03:13:22;102049.63;;;0.33;100.00
75913;BME280;64592;52.168;21.040;2024-01-30T03:18:25;102049.63;;;0.34;100.00
75913;BME280;64592;52.168;21.040;2024-01-30T03:23:28;102044.34;;;0.28;100.00
75913;BME280;64592;52.168;21.040;2024-01-30T03:28:29;102047.00;;;0.27;100.00
75913;BME280;64592;52.168;21.040;2024-01-30T03:33:31;102050.56;;;0.23;100.00
75913;BME280;64592;52.168;21.040;2024-01-30T03:38:34;102039.06;;;0.24;100.00
75913;BME280;64592;52.168;21.040;2024-01-30T03:43:36;102043.47;;;0.25;100.00
75913;BME280;64592;52.168;21.040;2024-01-30T03:48:38;102038.19;;;0.25;100.00
75913;BME280;64592;52.168;21.040;2024-01-30T03:53:41;102038.19;;;0.25;100.00
75913;BME280;64592;52.168;21.040;2024-01-30T03:58:43;102036.34;;;0.33;100.00
75913;BME280;64592;52.168;21.040;2024-01-30T04:03:45;102038.09;;;0.38;100.00
75913;BME280;64592;52.168;21.040;2024-01-30T04:08:47;102036.31;;;0.39;100.00
75913;BME280;64592;52.168;21.040;2024-01-30T04:13:49;102029.25;;;0.38;100.00
75913;BME280;64592;52.168;21.040;2024-01-30T04:18:51;102037.19;;;0.43;100.00
75913;BME280;64592;52.168;21.040;2024-01-30T04:23:54;102033.66;;;0.41;100.00
75913;BME280;64592;52.168;21.040;2024-01-30T04:28:55;102038.06;;;0.40;100.00
75913;BME280;64592;52.168;21.040;2024-01-30T04:33:57;102032.72;;;0.46;100.00
75913;BME280;64592;52.168;21.040;2024-01-30T04:39:00;102040.69;;;0.45;100.00
75913;BME280;64592;52.168;21.040;2024-01-30T04:44:01;102037.16;;;0.49;100.00
75913;BME280;64592;52.168;21.040;2024-01-30T04:49:03;102033.59;;;0.47;100.00
75913;BME280;64592;52.168;21.040;2024-01-30T04:54:06;102033.59;;;0.48;100.00
75913;BME280;64592;52.168;21.040;2024-01-30T04:59:08;102031.78;;;0.53;100.00
75913;BME280;64592;52.168;21.040;2024-01-30T05:04:10;102039.75;;;0.53;100.00
75913;BME280;64592;52.168;21.040;2024-01-30T05:09:13;102034.47;;;0.50;100.00
75913;BME280;64592;52.168;21.040;2024-01-30T05:14:14;102025.63;;;0.51;100.00
75913;BME280;64592;52.168;21.040;2024-01-30T05:19:16;102030.91;;;0.54;100.00
75913;BME280;64592;52.168;21.040;2024-01-30T05:24:20;102017.69;;;0.51;100.00
75913;BME280;64592;52.168;21.040;2024-01-30T05:29:22;102020.28;;;0.56;100.00
75913;BME280;64592;52.168;21.040;2024-01-30T05:34:23;102022.94;;;0.56;100.00
75913;BME280;64592;52.168;21.040;2024-01-30T05:39:26;102021.16;;;0.59;100.00
75913;BME280;64592;52.168;21.040;2024-01-30T05:44:28;102023.81;;;0.58;100.00
75913;BME280;64592;52.168;21.040;2024-01-30T05:49:30;102030.03;;;0.54;100.00
75913;BME280;64592;52.168;21.040;2024-01-30T05:54:33;102032.66;;;0.55;100.00
75913;BME280;64592;52.168;21.040;2024-01-30T05:59:34;102033.56;;;0.56;100.00
75913;BME280;64592;52.168;21.040;2024-01-30T06:04:37;102033.53;;;0.57;100.00
75913;BME280;64592;52.168;21.040;2024-01-30T06:09:40;102036.22;;;0.54;100.00
75913;BME280;64592;52.168;21.040;2024-01-30T06:14:42;102037.97;;;0.55;100.00
75913;BME280;64592;52.168;21.040;2024-01-30T06:19:44;102031.78;;;0.55;100.00
75913;BME280;64592;52.168;21.040;2024-01-30T06:24:47;102030.94;;;0.51;100.00
75913;BME280;64592;52.168;21.040;2024-01-30T06:29:49;102020.25;;;0.60;100.00
75913;BME280;64592;52.168;21.040;2024-01-30T06:34:50;102018.50;;;0.59;100.00
75913;BME280;64592;52.168;21.040;2024-01-30T06:39:53;102032.63;;;0.61;100.00
75913;BME280;64592;52.168;21.040;2024-01-30T06:44:55;102022.94;;;0.56;100.00
75913;BME280;64592;52.168;21.040;2024-01-30T06:49:56;102027.34;;;0.58;100.00
75913;BME280;64592;52.168;21.040;2024-01-30T06:54:59;102029.97;;;0.60;100.00
75913;BME280;64592;52.168;21.040;2024-01-30T07:00:01;102038.81;;;0.62;100.00
75913;BME280;64592;52.168;21.040;2024-01-30T07:05:04;102040.56;;;0.66;100.00
75913;BME280;64592;52.168;21.040;2024-01-30T07:10:08;102034.38;;;0.65;100.00
75913;BME280;64592;52.168;21.040;2024-01-30T07:15:10;102041.41;;;0.68;100.00
75913;BME280;64592;52.168;21.040;2024-01-30T07:20:12;102040.50;;;0.73;100.00
75913;BME280;64592;52.168;21.040;2024-01-30T07:25:15;102023.66;;;0.74;100.00
75913;BME280;64592;52.168;21.040;2024-01-30T07:30:17;102043.94;;;0.85;100.00
75913;BME280;64592;52.168;21.040;2024-01-30T07:35:18;102038.53;;;0.95;100.00
75913;BME280;64592;52.168;21.040;2024-01-30T07:40:22;102044.69;;;1.02;100.00
75913;BME280;64592;52.168;21.040;2024-01-30T07:45:24;102038.41;;;1.10;100.00
75913;BME280;64592;52.168;21.040;2024-01-30T07:50:27;102041.81;;;1.23;100.00
75913;BME280;64592;52.168;21.040;2024-01-30T07:55:31;102039.03;;;1.35;100.00
75913;BME280;64592;52.168;21.040;2024-01-30T08:00:33;102036.28;;;1.41;100.00
75913;BME280;64592;52.168;21.040;2024-01-30T08:05:34;102035.31;;;1.51;100.00
75913;BME280;64592;52.168;21.040;2024-01-30T08:10:37;102029.91;;;1.58;100.00
75913;BME280;64592;52.168;21.040;2024-01-30T08:15:39;102029.81;;;1.67;100.00
75913;BME280;64592;52.168;21.040;2024-01-30T08:20:41;102029.75;;;1.73;100.00
75913;BME280;64592;52.168;21.040;2024-01-30T08:25:44;102025.22;;;1.81;100.00
75913;BME280;64592;52.168;21.040;2024-01-30T08:30:46;102025.09;;;1.91;100.00
75913;BME280;64592;52.168;21.040;2024-01-30T08:35:48;102018.72;;;2.00;100.00
75913;BME280;64592;52.168;21.040;2024-01-30T08:40:51;102016.84;;;2.08;100.00
75913;BME280;64592;52.168;21.040;2024-01-30T08:45:52;102013.19;;;2.18;100.00
75913;BME280;64592;52.168;21.040;2024-01-30T08:50:54;102029.03;;;2.24;100.00
75913;BME280;64592;52.168;21.040;2024-01-30T08:55:57;102025.38;;;2.34;100.00
75913;BME280;64592;52.168;21.040;2024-01-30T09:00:59;102027.81;;;2.47;100.00
75913;BME280;64592;52.168;21.040;2024-01-30T09:06:01;102021.50;;;2.54;100.00
75913;BME280;64592;52.168;21.040;2024-01-30T09:11:09;102015.19;;;2.61;100.00
75913;BME280;64592;52.168;21.040;2024-01-30T09:16:11;102019.44;;;2.74;100.00
75913;BME280;64592;52.168;21.040;2024-01-30T09:21:12;102018.34;;;2.84;100.00
75913;BME280;64592;52.168;21.040;2024-01-30T09:26:15;102015.56;;;2.90;100.00
75913;BME280;64592;52.168;21.040;2024-01-30T09:31:17;102003.81;;;3.03;100.00
75913;BME280;64592;52.168;21.040;2024-01-30T09:36:19;102007.19;;;3.13;100.00
75913;BME280;64592;52.168;21.040;2024-01-30T09:41:23;102008.81;;;3.22;100.00
75913;BME280;64592;52.168;21.040;2024-01-30T09:46:27;102009.50;;;3.33;100.00
75913;BME280;64592;52.168;21.040;2024-01-30T09:51:30;102003.03;;;3.44;100.00
75913;BME280;64592;52.168;21.040;2024-01-30T09:56:33;101999.16;;;3.61;100.00
75913;BME280;64592;52.168;21.040;2024-01-30T10:01:35;101991.91;;;3.67;100.00
75913;BME280;64592;52.168;21.040;2024-01-30T10:06:38;101988.19;;;3.74;100.00
75913;BME280;64592;52.168;21.040;2024-01-30T10:11:42;101990.59;;;3.86;100.00
75913;BME280;64592;52.168;21.040;2024-01-30T10:16:45;101989.53;;;3.95;98.31
75913;BME280;64592;52.168;21.040;2024-01-30T10:21:47;101979.59;;;4.02;97.28
75913;BME280;64592;52.168;21.040;2024-01-30T10:26:50;101970.53;;;4.09;97.96
75913;BME280;64592;52.168;21.040;2024-01-30T10:31:58;101965.91;;;4.17;97.47
75913;BME280;64592;52.168;21.040;2024-01-30T10:37:07;101958.53;;;4.28;96.23
75913;BME280;64592;52.168;21.040;2024-01-30T10:42:17;101957.47;;;4.35;96.05
75913;BME280;64592;52.168;21.040;2024-01-30T10:47:26;101947.53;;;4.42;96.67
75913;BME280;64592;52.168;21.040;2024-01-30T10:52:28;101941.00;;;4.53;94.53
75913;BME280;64592;52.168;21.040;2024-01-30T10:57:34;101940.72;;;4.65;94.57
75913;BME280;64592;52.168;21.040;2024-01-30T11:02:37;101939.63;;;4.73;93.55
75913;BME280;64592;52.168;21.040;2024-01-30T11:07:40;101925.94;;;4.85;92.92
75913;BME280;64592;52.168;21.040;2024-01-30T11:12:43;101921.41;;;4.88;92.69
75913;BME280;64592;52.168;21.040;2024-01-30T11:17:50;101920.19;;;5.00;91.42
75913;BME280;64592;52.168;21.040;2024-01-30T11:22:53;101911.31;;;4.98;91.27
75913;BME280;64592;52.168;21.040;2024-01-30T11:27:56;101905.66;;;5.10;90.71
75913;BME280;64592;52.168;21.040;2024-01-30T11:33:02;101904.53;;;5.19;89.62
75913;BME280;64592;52.168;21.040;2024-01-30T11:38:06;101895.34;;;5.27;89.69
75913;BME280;64592;52.168;21.040;2024-01-30T11:43:09;101893.28;;;5.37;89.27
75913;BME280;64592;52.168;21.040;2024-01-30T11:48:12;101890.47;;;5.41;88.54
75913;BME280;64592;52.168;21.040;2024-01-30T11:53:13;101889.94;;;5.60;86.31
75913;BME280;64592;52.168;21.040;2024-01-30T11:58:16;101886.94;;;5.70;86.03
75913;BME280;64592;52.168;21.040;2024-01-30T12:03:18;101876.16;;;5.72;85.90
75913;BME280;64592;52.168;21.040;2024-01-30T12:08:20;101876.06;;;5.76;86.11
75913;BME280;64592;52.168;21.040;2024-01-30T12:13:23;101875.59;;;5.92;86.81
75913;BME280;64592;52.168;21.040;2024-01-30T12:18:24;101868.38;;;6.21;85.10
75913;BME280;64592;52.168;21.040;2024-01-30T12:23:26;101867.22;;;6.55;82.79
75913;BME280;64592;52.168;21.040;2024-01-30T12:28:30;101864.44;;;6.83;82.98
75913;BME280;64592;52.168;21.040;2024-01-30T12:33:31;101858.13;;;7.33;80.26
75913;BME280;64592;52.168;21.040;2024-01-30T12:38:33;101859.75;;;7.83;77.99
75913;BME280;64592;52.168;21.040;2024-01-30T12:43:36;101855.28;;;8.05;74.21
75913;BME280;64592;52.168;21.040;2024-01-30T12:48:38;101852.84;;;8.21;73.31
75913;BME280;64592;52.168;21.040;2024-01-30T12:53:39;101844.47;;;8.28;72.10
75913;BME280;64592;52.168;21.040;2024-01-30T12:58:42;101842.91;;;8.65;71.26
75913;BME280;64592;52.168;21.040;2024-01-30T13:03:44;101840.09;;;8.88;70.57
75913;BME280;64592;52.168;21.040;2024-01-30T13:08:46;101836.59;;;8.86;67.55
75913;BME280;64592;52.168;21.040;2024-01-30T13:13:49;101825.22;;;8.79;68.28
75913;BME280;64592;52.168;21.040;2024-01-30T13:18:50;101829.59;;;8.82;67.46
75913;BME280;64592;52.168;21.040;2024-01-30T13:23:52;101840.53;;;8.98;66.71
75913;BME280;64592;52.168;21.040;2024-01-30T13:28:56;101833.97;;;9.23;65.96
75913;BME280;64592;52.168;21.040;2024-01-30T13:33:57;101835.09;;;9.38;64.87
75913;BME280;64592;52.168;21.040;2024-01-30T13:38:59;101825.31;;;9.17;64.73
75913;BME280;64592;52.168;21.040;2024-01-30T13:44:02;101831.34;;;9.03;64.97
75913;BME280;64592;52.168;21.040;2024-01-30T13:49:04;101839.03;;;8.72;66.14
75913;BME280;64592;52.168;21.040;2024-01-30T13:54:07;101831.06;;;8.48;67.13
75913;BME280;64592;52.168;21.040;2024-01-30T13:59:10;101830.25;;;8.25;67.83
75913;BME280;64592;52.168;21.040;2024-01-30T14:04:12;101831.59;;;8.14;69.82
75913;BME280;64592;52.168;21.040;2024-01-30T14:09:14;101824.09;;;8.01;68.98
75913;BME280;64592;52.168;21.040;2024-01-30T14:14:18;101815.25;;;7.77;70.74
75913;BME280;64592;52.168;21.040;2024-01-30T14:19:19;101817.78;;;7.58;69.94
75913;BME280;64592;52.168;21.040;2024-01-30T14:24:21;101818.28;;;7.46;71.92
75913;BME280;64592;52.168;21.040;2024-01-30T14:29:24;101810.00;;;7.29;72.15
75913;BME280;64592;52.168;21.040;2024-01-30T14:34:26;101818.38;;;7.20;72.39
75913;BME280;64592;52.168;21.040;2024-01-30T14:39:28;101819.69;;;7.10;73.51
75913;BME280;64592;52.168;21.040;2024-01-30T14:44:31;101805.66;;;7.03;74.03
75913;BME280;64592;52.168;21.040;2024-01-30T14:49:32;101804.78;;;7.03;74.56
75913;BME280;64592;52.168;21.040;2024-01-30T14:54:34;101805.97;;;6.94;74.75
75913;BME280;64592;52.168;21.040;2024-01-30T14:59:37;101793.84;;;6.84;76.02
75913;BME280;64592;52.168;21.040;2024-01-30T15:04:38;101796.78;;;6.76;75.24
75913;BME280;64592;52.168;21.040;2024-01-30T15:09:40;101792.72;;;6.66;75.65
75913;BME280;64592;52.168;21.040;2024-01-30T15:14:43;101794.91;;;6.55;77.01
75913;BME280;64592;52.168;21.040;2024-01-30T15:19:50;101793.41;;;6.46;77.11
75913;BME280;64592;52.168;21.040;2024-01-30T15:24:52;101800.84;;;6.38;77.10
75913;BME280;64592;52.168;21.040;2024-01-30T15:29:55;101796.78;;;6.27;77.54
75913;BME280;64592;52.168;21.040;2024-01-30T15:34:57;101789.84;;;6.21;78.36
75913;BME280;64592;52.168;21.040;2024-01-30T15:40:01;101791.03;;;6.12;79.09
75913;BME280;64592;52.168;21.040;2024-01-30T15:45:07;101792.25;;;6.02;79.88
75913;BME280;64592;52.168;21.040;2024-01-30T15:50:11;101792.56;;;5.93;79.67
75913;BME280;64592;52.168;21.040;2024-01-30T15:55:12;101790.94;;;5.89;80.58
75913;BME280;64592;52.168;21.040;2024-01-30T16:00:17;101774.25;;;5.79;80.10
75913;BME280;64592;52.168;21.040;2024-01-30T16:05:19;101770.72;;;5.79;80.71
75913;BME280;64592;52.168;21.040;2024-01-30T16:10:21;101788.72;;;5.74;78.98
75913;BME280;64592;52.168;21.040;2024-01-30T16:15:24;101780.78;;;5.71;80.40
75913;BME280;64592;52.168;21.040;2024-01-30T16:20:26;101773.84;;;5.65;80.21
75913;BME280;64592;52.168;21.040;2024-01-30T16:25:27;101772.16;;;5.63;80.20
75913;BME280;64592;52.168;21.040;2024-01-30T16:30:30;101774.09;;;5.58;81.25
75913;BME280;64592;52.168;21.040;2024-01-30T16:35:32;101754.84;;;5.46;79.90
75913;BME280;64592;52.168;21.040;2024-01-30T16:40:35;101770.78;;;5.50;80.70
75913;BME280;64592;52.168;21.040;2024-01-30T16:45:38;101764.66;;;5.46;81.41
75913;BME280;64592;52.168;21.040;2024-01-30T16:50:40;101772.81;;;5.41;80.36
75913;BME280;64592;52.168;21.040;2024-01-30T16:55:42;101774.75;;;5.36;80.40
75913;BME280;64592;52.168;21.040;2024-01-30T17:00:45;101767.78;;;5.32;82.10
75913;BME280;64592;52.168;21.040;2024-01-30T17:05:46;101763.44;;;5.28;81.45
75913;BME280;64592;52.168;21.040;2024-01-30T17:10:48;101755.59;;;5.22;81.62
75913;BME280;64592;52.168;21.040;2024-01-30T17:15:51;101753.97;;;5.18;81.82
75913;BME280;64592;52.168;21.040;2024-01-30T17:20:52;101755.84;;;5.15;81.44
75913;BME280;64592;52.168;21.040;2024-01-30T17:25:54;101751.53;;;5.11;82.75
75913;BME280;64592;52.168;21.040;2024-01-30T17:30:57;101747.13;;;5.08;81.02
75913;BME280;64592;52.168;21.040;2024-01-30T17:36:00;101756.16;;;5.04;81.93
75913;BME280;64592;52.168;21.040;2024-01-30T17:41:02;101745.56;;;5.01;82.64
75913;BME280;64592;52.168;21.040;2024-01-30T17:46:05;101742.19;;;4.96;82.03
75913;BME280;64592;52.168;21.040;2024-01-30T17:51:06;101739.78;;;4.87;83.16
75913;BME280;64592;52.168;21.040;2024-01-30T17:56:08;101738.16;;;4.81;84.53
75913;BME280;64592;52.168;21.040;2024-01-30T18:01:12;101730.38;;;4.74;84.18
75913;BME280;64592;52.168;21.040;2024-01-30T18:06:14;101722.50;;;4.67;83.85
75913;BME280;64592;52.168;21.040;2024-01-30T18:11:16;101733.31;;;4.64;84.29
75913;BME280;64592;52.168;21.040;2024-01-30T18:16:19;101725.47;;;4.58;84.21
75913;BME280;64592;52.168;21.040;2024-01-30T18:21:22;101727.38;;;4.53;85.06
75913;BME280;64592;52.168;21.040;2024-01-30T18:26:24;101729.25;;;4.51;85.22
75913;BME280;64592;52.168;21.040;2024-01-30T18:31:27;101724.00;;;4.47;85.59
75913;BME280;64592;52.168;21.040;2024-01-30T18:36:29;101720.66;;;4.40;85.47
75913;BME280;64592;52.168;21.040;2024-01-30T18:41:31;101719.91;;;4.35;84.88
75913;BME280;64592;52.168;21.040;2024-01-30T18:46:36;101727.06;;;4.33;86.53
75913;BME280;64592;52.168;21.040;2024-01-30T18:51:37;101724.59;;;4.27;87.07
75913;BME280;64592;52.168;21.040;2024-01-30T18:56:39;101718.50;;;4.22;87.70
75913;BME280;64592;52.168;21.040;2024-01-30T19:01:43;101736.34;;;4.20;87.99
75913;BME280;64592;52.168;21.040;2024-01-30T19:06:45;101720.41;;;4.17;87.54
75913;BME280;64592;52.168;21.040;2024-01-30T19:11:47;101719.66;;;4.12;88.31
75913;BME280;64592;52.168;21.040;2024-01-30T19:16:50;101709.94;;;4.09;89.35
75913;BME280;64592;52.168;21.040;2024-01-30T19:21:52;101717.13;;;4.07;87.56
75913;BME280;64592;52.168;21.040;2024-01-30T19:26:54;101711.06;;;4.01;88.39
75913;BME280;64592;52.168;21.040;2024-01-30T19:31:57;101709.31;;;4.00;88.91
75913;BME280;64592;52.168;21.040;2024-01-30T19:36:59;101708.50;;;3.96;89.98
75913;BME280;64592;52.168;21.040;2024-01-30T19:42:00;101707.75;;;3.93;89.39
75913;BME280;64592;52.168;21.040;2024-01-30T19:47:04;101697.19;;;3.86;89.54
75913;BME280;64592;52.168;21.040;2024-01-30T19:52:09;101707.88;;;3.86;89.89
75913;BME280;64592;52.168;21.040;2024-01-30T19:57:12;101686.66;;;3.82;90.30
75913;BME280;64592;52.168;21.040;2024-01-30T20:02:15;101686.63;;;3.83;90.40
75913;BME280;64592;52.168;21.040;2024-01-30T20:07:20;101680.50;;;3.80;90.42
75913;BME280;64592;52.168;21.040;2024-01-30T20:12:21;101691.19;;;3.78;91.46
75913;BME280;64592;52.168;21.040;2024-01-30T20:17:24;101686.75;;;3.79;91.69
75913;BME280;64592;52.168;21.040;2024-01-30T20:22:26;101685.97;;;3.75;91.65
75913;BME280;64592;52.168;21.040;2024-01-30T20:27:28;101683.34;;;3.72;92.38
75913;BME280;64592;52.168;21.040;2024-01-30T20:32:31;101686.13;;;3.69;91.98
75913;BME280;64592;52.168;21.040;2024-01-30T20:37:33;101688.72;;;3.71;92.31
75913;BME280;64592;52.168;21.040;2024-01-30T20:42:35;101678.13;;;3.69;93.89
75913;BME280;64592;52.168;21.040;2024-01-30T20:47:38;101678.19;;;3.66;92.76
75913;BME280;64592;52.168;21.040;2024-01-30T20:52:39;101679.19;;;3.62;93.31
75913;BME280;64592;52.168;21.040;2024-01-30T20:57:41;101678.41;;;3.57;93.45
75913;BME280;64592;52.168;21.040;2024-01-30T21:02:44;101667.75;;;3.57;94.54
75913;BME280;64592;52.168;21.040;2024-01-30T21:07:46;101659.88;;;3.53;94.76
75913;BME280;64592;52.168;21.040;2024-01-30T21:12:47;101670.56;;;3.51;94.48
75913;BME280;64592;52.168;21.040;2024-01-30T21:17:50;101662.59;;;3.51;94.84
75913;BME280;64592;52.168;21.040;2024-01-30T21:22:52;101659.13;;;3.47;94.93
75913;BME280;64592;52.168;21.040;2024-01-30T21:27:54;101660.03;;;3.46;95.63
75913;BME280;64592;52.168;21.040;2024-01-30T21:32:57;101662.91;;;3.39;94.65
75913;BME280;64592;52.168;21.040;2024-01-30T21:38:01;101661.16;;;3.38;95.51
75913;BME280;64592;52.168;21.040;2024-01-30T21:43:04;101666.47;;;3.38;95.28
75913;BME280;64592;52.168;21.040;2024-01-30T21:48:07;101663.97;;;3.32;95.13
75913;BME280;64592;52.168;21.040;2024-01-30T21:53:09;101669.28;;;3.33;95.82
75913;BME280;64592;52.168;21.040;2024-01-30T21:58:10;101674.63;;;3.32;95.68
75913;BME280;64592;52.168;21.040;2024-01-30T22:03:15;101675.59;;;3.28;95.69
75913;BME280;64592;52.168;21.040;2024-01-30T22:08:17;101678.34;;;3.25;95.65
75913;BME280;64592;52.168;21.040;2024-01-30T22:13:19;101667.75;;;3.22;96.45
75913;BME280;64592;52.168;21.040;2024-01-30T22:18:23;101678.41;;;3.22;97.01
75913;BME280;64592;52.168;21.040;2024-01-30T22:23:26;101675.00;;;3.17;97.56
75913;BME280;64592;52.168;21.040;2024-01-30T22:28:28;101677.56;;;3.20;97.58
75913;BME280;64592;52.168;21.040;2024-01-30T22:33:31;101680.31;;;3.17;95.81
75913;BME280;64592;52.168;21.040;2024-01-30T22:38:32;101676.81;;;3.15;95.50
75913;BME280;64592;52.168;21.040;2024-01-30T22:43:34;101674.22;;;3.11;95.85
75913;BME280;64592;52.168;21.040;2024-01-30T22:48:37;101672.53;;;3.07;95.80
75913;BME280;64592;52.168;21.040;2024-01-30T22:53:38;101673.34;;;3.11;95.93
75913;BME280;64592;52.168;21.040;2024-01-30T22:58:40;101660.13;;;3.06;95.98
75913;BME280;64592;52.168;21.040;2024-01-30T23:03:43;101656.72;;;3.01;95.71
75913;BME280;64592;52.168;21.040;2024-01-30T23:08:45;101657.63;;;3.00;95.31
75913;BME280;64592;52.168;21.040;2024-01-30T23:13:46;101648.88;;;2.95;96.80
75913;BME280;64592;52.168;21.040;2024-01-30T23:18:50;101641.81;;;2.93;96.09
75913;BME280;64592;52.168;21.040;2024-01-30T23:23:51;101637.44;;;2.90;96.41
75913;BME280;64592;52.168;21.040;2024-01-30T23:28:54;101633.84;;;2.91;96.49
75913;BME280;64592;52.168;21.040;2024-01-30T23:33:59;101640.16;;;2.89;96.61
75913;BME280;64592;52.168;21.040;2024-01-30T23:39:02;101634.72;;;2.92;96.85
75913;BME280;64592;52.168;21.040;2024-01-30T23:44:04;101630.44;;;2.86;97.17
75913;BME280;64592;52.168;21.040;2024-01-30T23:49:07;101637.53;;;2.86;96.88
75913;BME280;64592;52.168;21.040;2024-01-30T23:54:09;101631.38;;;2.84;96.78
75913;BME280;64592;52.168;21.040;2024-01-30T23:59:10;101633.16;;;2.83;97.07
